createdAt,value
2023-01-12T00:02:15.099Z,39.83
2023-01-12T00:04:43.035Z,37.90
2023-01-12T00:07:12.896Z,33.50
2023-01-12T00:09:40.912Z,34.28
2023-01-12T00:12:11.350Z,33.90
2023-01-12T00:14:40.236Z,32.65
2023-01-12T00:17:09.227Z,26.23
2023-01-12T00:19:38.863Z,35.65
2023-01-12T00:22:11.889Z,28.77
2023-01-12T00:24:41.972Z,33.38
2023-01-12T00:27:12.548Z,32.63
2023-01-12T00:32:13.186Z,25.85
2023-01-12T00:34:40.936Z,20.27
2023-01-12T00:37:08.895Z,23.08
2023-01-12T00:39:42.927Z,30.08
2023-01-12T00:42:31.714Z,24.73
2023-01-12T00:45:18.126Z,21.52
2023-01-12T00:47:45.714Z,18.58
2023-01-12T00:50:13.939Z,24.77
2023-01-12T00:52:41.553Z,20.02
2023-01-12T00:55:09.517Z,22.85
2023-01-12T00:57:37.171Z,26.83
2023-01-12T01:00:05.466Z,28.67
2023-01-12T01:02:34.144Z,28.38
2023-01-12T01:05:01.802Z,28.75
2023-01-12T01:07:29.462Z,33.35
2023-01-12T01:09:57.023Z,26.08
2023-01-12T01:12:24.625Z,26.52
2023-01-12T01:14:53.564Z,29.05
2023-01-12T01:17:21.185Z,24.05
2023-01-12T01:19:50.831Z,35.47
2023-01-12T01:22:23.873Z,25.00
2023-01-12T01:24:53.999Z,22.98
2023-01-12T01:27:21.886Z,19.55
2023-01-12T01:29:49.448Z,26.52
2023-01-12T01:32:17.109Z,38.78
2023-01-12T01:34:46.434Z,23.20
2023-01-12T01:37:14.193Z,25.50
2023-01-12T01:39:41.869Z,32.80
2023-01-12T01:42:28.387Z,27.27
2023-01-12T01:44:58.598Z,27.27
2023-01-12T01:47:34.990Z,23.55
2023-01-12T01:50:06.087Z,19.20
2023-01-12T01:52:41.573Z,21.58
2023-01-12T01:55:17.993Z,27.42
2023-01-12T01:57:58.743Z,22.00
2023-01-12T02:02:54.745Z,26.75
2023-01-12T02:05:26.129Z,26.10
2023-01-12T02:07:55.141Z,16.15
2023-01-12T02:10:22.939Z,18.50
2023-01-12T02:13:09.650Z,15.95
2023-01-12T02:16:15.854Z,21.10
2023-01-12T02:18:54.110Z,18.70
2023-01-12T02:21:24.695Z,17.77
2023-01-12T02:27:02.852Z,12.95
2023-01-12T02:29:49.118Z,11.65
2023-01-12T02:32:28.673Z,11.10
2023-01-12T02:35:19.638Z,13.27
2023-01-12T02:38:16.477Z,14.85
2023-01-12T02:41:14.948Z,15.00
2023-01-12T02:43:43.172Z,12.80
2023-01-12T02:46:25.765Z,14.40
2023-01-12T02:49:10.518Z,12.90
2023-01-12T02:51:44.596Z,18.67
2023-01-12T02:54:15.572Z,14.95
2023-01-12T02:56:47.807Z,11.88
2023-01-12T02:59:32.894Z,20.23
2023-01-12T03:02:08.045Z,14.52
2023-01-12T03:04:36.228Z,12.57
2023-01-12T03:07:03.719Z,17.25
2023-01-12T03:09:42.341Z,16.20
2023-01-12T03:12:33.221Z,12.43
2023-01-12T03:15:06.402Z,13.50
2023-01-12T03:17:41.790Z,12.23
2023-01-12T03:20:24.858Z,15.45
2023-01-12T03:22:57.740Z,16.38
2023-01-12T03:25:26.968Z,11.43
2023-01-12T03:27:58.258Z,20.40
2023-01-12T03:30:52.130Z,9.45
2023-01-12T03:33:19.787Z,11.75
2023-01-12T03:36:16.981Z,9.93
2023-01-12T03:38:50.395Z,10.77
2023-01-12T03:41:45.486Z,10.18
2023-01-12T03:44:20.767Z,20.45
2023-01-12T03:46:56.669Z,10.55
2023-01-12T03:49:36.832Z,9.13
2023-01-12T03:52:07.495Z,11.90
2023-01-12T03:57:05.239Z,12.02
2023-01-12T03:59:32.910Z,12.95
2023-01-12T04:02:00.561Z,7.75
2023-01-12T04:04:28.203Z,11.48
2023-01-12T04:06:56.103Z,10.63
2023-01-12T04:09:25.851Z,6.00
2023-01-12T04:12:11.829Z,12.80
2023-01-12T04:14:47.681Z,6.93
2023-01-12T04:17:16.303Z,10.20
2023-01-12T04:19:43.915Z,9.48
2023-01-12T04:22:34.367Z,12.95
2023-01-12T04:25:02.080Z,14.75
2023-01-12T04:27:29.893Z,12.77
2023-01-12T04:29:57.550Z,9.95
2023-01-12T04:32:25.208Z,12.43
2023-01-12T04:34:52.826Z,12.75
2023-01-12T04:37:20.560Z,13.15
2023-01-12T04:39:48.288Z,8.93
2023-01-12T04:42:34.105Z,7.20
2023-01-12T04:45:01.632Z,10.70
2023-01-12T04:47:29.263Z,10.27
2023-01-12T04:49:56.932Z,9.73
2023-01-12T04:52:24.603Z,6.85
2023-01-12T04:54:52.240Z,6.00
2023-01-12T04:57:19.923Z,4.93
2023-01-12T04:59:47.543Z,7.05
2023-01-12T05:02:15.398Z,6.35
2023-01-12T05:04:43.041Z,11.88
2023-01-12T05:07:10.624Z,5.35
2023-01-12T05:09:56.367Z,7.38
2023-01-12T05:12:24.191Z,6.15
2023-01-12T05:14:53.265Z,6.28
2023-01-12T05:17:20.907Z,5.38
2023-01-12T05:19:49.731Z,7.57
2023-01-12T05:22:17.425Z,5.55
2023-01-12T05:24:45.033Z,9.82
2023-01-12T05:27:12.679Z,12.20
2023-01-12T05:29:40.279Z,6.07
2023-01-12T05:32:07.909Z,10.43
2023-01-12T05:34:35.513Z,6.90
2023-01-12T05:37:03.172Z,7.13
2023-01-12T05:39:30.768Z,3.17
2023-01-12T05:42:16.638Z,10.43
2023-01-12T05:44:44.442Z,8.90
2023-01-12T05:47:12.097Z,4.60
2023-01-12T05:49:39.875Z,8.82
2023-01-12T05:52:07.602Z,7.70
2023-01-12T05:54:35.239Z,9.02
2023-01-12T05:57:02.888Z,4.88
2023-01-12T05:59:30.538Z,7.68
2023-01-12T06:01:58.140Z,10.82
2023-01-12T06:04:25.856Z,4.55
2023-01-12T06:06:53.453Z,7.55
2023-01-12T06:09:21.106Z,7.43
2023-01-12T06:12:07.220Z,10.02
2023-01-12T06:14:35.570Z,6.43
2023-01-12T06:17:03.266Z,7.00
2023-01-12T06:19:30.843Z,5.97
2023-01-12T06:21:59.692Z,4.30
2023-01-12T06:24:28.414Z,6.65
2023-01-12T06:26:56.285Z,3.03
2023-01-12T06:29:24.105Z,8.18
2023-01-12T06:31:51.882Z,8.90
2023-01-12T06:34:20.399Z,3.70
2023-01-12T06:36:49.435Z,6.25
2023-01-12T06:39:17.027Z,7.80
2023-01-12T06:42:02.882Z,3.67
2023-01-12T06:44:30.512Z,9.68
2023-01-12T06:46:58.107Z,5.45
2023-01-12T06:49:25.715Z,5.88
2023-01-12T06:51:53.431Z,6.63
2023-01-12T06:54:21.375Z,6.78
2023-01-12T06:56:49.050Z,6.93
2023-01-12T06:59:16.902Z,7.03
2023-01-12T07:01:44.590Z,4.63
2023-01-12T07:04:12.256Z,4.78
2023-01-12T07:06:39.883Z,5.32
2023-01-12T07:09:07.469Z,6.97
2023-01-12T07:11:35.151Z,7.22
2023-01-12T07:14:02.706Z,5.25
2023-01-12T07:16:30.336Z,7.10
2023-01-12T07:18:58.807Z,10.45
2023-01-12T07:21:26.500Z,9.65
2023-01-12T07:23:54.399Z,6.45
2023-01-12T07:26:22.506Z,8.95
2023-01-12T07:28:50.228Z,7.55
2023-01-12T07:31:19.579Z,5.65
2023-01-12T07:33:47.446Z,8.02
2023-01-12T07:36:15.049Z,11.45
2023-01-12T07:38:43.622Z,7.50
2023-01-12T07:41:31.429Z,10.30
2023-01-12T07:44:09.116Z,9.35
2023-01-12T07:46:39.430Z,9.55
2023-01-12T07:49:08.134Z,11.73
2023-01-12T07:51:35.888Z,8.73
2023-01-12T07:54:03.752Z,12.57
2023-01-12T07:56:31.392Z,11.75
2023-01-12T07:58:59.056Z,8.85
2023-01-12T08:01:26.828Z,11.20
2023-01-12T08:03:54.737Z,12.50
2023-01-12T08:06:23.552Z,6.68
2023-01-12T08:08:53.514Z,10.65
2023-01-12T08:11:21.404Z,9.40
2023-01-12T08:13:53.150Z,10.05
2023-01-12T08:16:25.307Z,6.60
2023-01-12T08:19:14.323Z,11.07
2023-01-12T08:21:48.277Z,11.43
2023-01-12T08:24:19.534Z,13.85
2023-01-12T08:26:50.807Z,11.77
2023-01-12T08:29:29.827Z,11.45
2023-01-12T08:32:04.765Z,13.52
2023-01-12T08:34:35.414Z,12.82
2023-01-12T08:37:08.065Z,12.45
2023-01-12T08:40:08.042Z,9.30
2023-01-12T08:42:59.271Z,9.45
2023-01-12T08:48:28.540Z,13.35
2023-01-12T08:51:17.121Z,7.05
2023-01-12T08:55:04.467Z,12.05
2023-01-12T08:57:54.542Z,15.50
2023-01-12T09:00:34.114Z,11.32
2023-01-12T09:03:10.031Z,12.35
2023-01-12T09:05:42.676Z,13.05
2023-01-12T09:08:22.982Z,13.75
2023-01-12T09:11:30.538Z,16.70
2023-01-12T09:14:20.466Z,19.48
2023-01-12T09:17:40.684Z,12.60
2023-01-12T09:24:03.234Z,12.82
2023-01-12T09:26:49.658Z,15.45
2023-01-12T09:33:54.582Z,13.50
2023-01-12T09:36:32.131Z,14.73
2023-01-12T09:40:34.948Z,12.40
2023-01-12T09:47:32.200Z,9.95
2023-01-12T09:50:39.627Z,10.55
2023-01-12T09:53:43.314Z,10.80
2023-01-12T09:57:03.328Z,8.65
2023-01-12T09:59:37.275Z,9.30
2023-01-12T10:02:13.476Z,8.07
2023-01-12T10:04:43.745Z,10.60
2023-01-12T10:07:15.866Z,8.07
2023-01-12T10:09:48.321Z,5.93
2023-01-12T10:12:34.691Z,4.72
2023-01-12T10:15:29.118Z,8.63
2023-01-12T10:18:58.788Z,8.32
2023-01-12T10:21:30.835Z,4.20
2023-01-12T10:24:13.315Z,9.85
2023-01-12T10:26:58.017Z,6.47
2023-01-12T10:29:35.435Z,7.45
2023-01-12T10:32:41.927Z,5.80
2023-01-12T10:35:16.443Z,8.18
2023-01-12T10:37:51.071Z,5.22
2023-01-12T10:40:39.244Z,5.38
2023-01-12T10:43:37.095Z,10.93
2023-01-12T10:46:28.035Z,7.05
2023-01-12T10:49:28.135Z,8.65
2023-01-12T10:54:56.164Z,9.77
2023-01-12T10:57:33.498Z,5.38
2023-01-12T11:00:25.253Z,2.72
2023-01-12T11:02:54.918Z,4.45
2023-01-12T11:05:45.089Z,6.60
2023-01-12T11:08:41.008Z,10.30
2023-01-12T11:11:32.290Z,8.77
2023-01-12T11:14:03.447Z,8.98
2023-01-12T11:16:40.462Z,3.95
2023-01-12T11:19:23.878Z,6.07
2023-01-12T11:22:03.078Z,4.13
2023-01-12T11:25:02.141Z,6.07
2023-01-12T11:27:42.529Z,6.55
2023-01-12T11:30:44.534Z,4.93
2023-01-12T11:33:39.576Z,11.20
2023-01-12T11:36:17.679Z,7.50
2023-01-12T11:38:49.168Z,4.35
2023-01-12T11:42:16.054Z,4.28
2023-01-12T11:45:06.552Z,6.47
2023-01-12T11:50:35.953Z,4.47
2023-01-12T11:53:06.163Z,10.73
2023-01-12T11:56:02.180Z,7.07
2023-01-12T11:58:40.145Z,5.43
2023-01-12T12:01:24.799Z,6.68
2023-01-12T12:03:59.789Z,4.82
2023-01-12T12:06:27.886Z,5.57
2023-01-12T12:09:34.349Z,3.88
2023-01-12T12:13:12.538Z,5.45
2023-01-12T12:16:16.312Z,5.45
2023-01-12T12:19:00.846Z,5.35
2023-01-12T12:21:51.105Z,4.60
2023-01-12T12:24:50.408Z,3.28
2023-01-12T12:28:31.499Z,9.30
2023-01-12T12:31:37.776Z,4.40
2023-01-12T12:34:39.273Z,4.60
2023-01-12T12:39:28.605Z,7.55
2023-01-12T12:42:40.976Z,5.57
2023-01-12T12:45:32.964Z,6.53
2023-01-12T12:48:20.309Z,6.57
2023-01-12T12:51:09.570Z,4.95
2023-01-12T12:53:54.398Z,6.60
2023-01-12T12:56:25.238Z,5.75
2023-01-12T12:58:58.159Z,8.10
2023-01-12T13:04:02.986Z,6.50
2023-01-12T13:06:46.426Z,8.13
2023-01-12T13:09:17.657Z,4.35
2023-01-12T13:11:54.844Z,11.05
2023-01-12T13:14:42.793Z,6.60
2023-01-12T13:17:19.949Z,11.68
2023-01-12T13:20:06.168Z,5.57
2023-01-12T13:22:41.810Z,8.73
2023-01-12T13:25:17.145Z,10.43
2023-01-12T13:27:52.691Z,5.97
2023-01-12T13:30:28.513Z,9.45
2023-01-12T13:33:15.296Z,5.97
2023-01-12T13:35:46.792Z,6.35
2023-01-12T13:38:39.681Z,6.68
2023-01-12T13:41:15.144Z,7.95
2023-01-12T13:44:05.399Z,6.70
2023-01-12T13:46:47.106Z,7.72
2023-01-12T13:49:34.129Z,9.82
2023-01-12T13:52:12.388Z,6.10
2023-01-12T13:54:51.091Z,4.85
2023-01-12T13:57:22.489Z,4.05
2023-01-12T14:00:04.348Z,2.42
2023-01-12T14:02:42.995Z,6.68
2023-01-12T14:05:36.015Z,5.40
2023-01-12T14:08:51.065Z,5.60
2023-01-12T14:11:35.373Z,10.10
2023-01-12T14:14:43.856Z,11.68
2023-01-12T14:17:42.805Z,4.22
2023-01-12T14:20:24.968Z,10.57
2023-01-12T14:23:21.776Z,10.10
2023-01-12T14:26:18.016Z,7.38
2023-01-12T14:28:52.470Z,9.57
2023-01-12T14:31:43.148Z,8.77
2023-01-12T14:37:49.147Z,10.50
2023-01-12T14:40:39.660Z,9.02
2023-01-12T14:43:43.812Z,12.55
2023-01-12T14:46:34.048Z,6.93
2023-01-12T14:49:38.034Z,9.80
2023-01-12T14:52:23.803Z,5.82
2023-01-12T14:55:25.647Z,11.68
2023-01-12T14:58:01.289Z,12.18
2023-01-12T15:01:29.649Z,12.25
2023-01-12T15:04:01.680Z,7.95
2023-01-12T15:06:30.020Z,9.60
2023-01-12T15:09:01.220Z,11.13
2023-01-12T15:11:38.517Z,10.75
2023-01-12T15:14:23.013Z,14.85
2023-01-12T15:17:15.664Z,9.18
2023-01-12T15:20:01.853Z,10.30
2023-01-12T15:22:48.684Z,12.32
2023-01-12T15:25:37.431Z,8.88
2023-01-12T15:28:07.321Z,9.00
2023-01-12T15:30:38.479Z,17.88
2023-01-12T15:33:06.852Z,19.73
2023-01-12T15:35:35.557Z,12.40
2023-01-12T15:38:03.222Z,8.52
2023-01-12T15:40:31.007Z,4.47
2023-01-12T15:43:04.812Z,9.80
2023-01-12T15:45:37.368Z,8.90
2023-01-12T15:48:06.608Z,9.48
2023-01-12T15:50:39.391Z,13.68
2023-01-12T15:57:14.277Z,11.80
2023-01-12T15:59:55.954Z,6.10
2023-01-12T16:02:49.348Z,16.02
2023-01-12T16:05:33.935Z,10.32
2023-01-12T16:08:12.153Z,11.63
2023-01-12T16:10:59.694Z,12.20
2023-01-12T16:13:27.382Z,10.25
2023-01-12T16:15:55.741Z,12.52
2023-01-12T16:18:23.842Z,10.98
2023-01-12T16:20:56.509Z,14.40
2023-01-12T16:23:28.370Z,7.68
2023-01-12T16:25:58.456Z,5.18
2023-01-12T16:28:31.005Z,7.75
2023-01-12T16:31:03.303Z,8.20
2023-01-12T16:33:31.472Z,5.63
2023-01-12T16:36:02.556Z,9.43
2023-01-12T16:38:31.206Z,7.72
2023-01-12T16:41:00.033Z,11.70
2023-01-12T16:43:30.456Z,10.55
2023-01-12T16:46:04.705Z,6.07
2023-01-12T16:48:33.850Z,12.53
2023-01-12T16:51:12.095Z,7.22
2023-01-12T16:53:44.996Z,8.38
2023-01-12T16:56:16.738Z,9.02
2023-01-12T17:19:53.508Z,15.13
2023-01-12T17:22:34.780Z,13.30
2023-01-12T17:25:18.443Z,18.27
2023-01-12T17:27:47.240Z,18.58
2023-01-12T17:30:22.792Z,17.00
2023-01-12T17:36:05.420Z,18.92
2023-01-12T17:38:36.960Z,14.00
2023-01-12T17:41:40.279Z,14.68
2023-01-12T17:44:10.180Z,20.42
2023-01-12T17:46:48.203Z,16.67
2023-01-12T17:49:26.798Z,15.23
2023-01-12T17:51:57.460Z,22.13
2023-01-12T17:54:27.762Z,23.10
2023-01-12T17:57:05.249Z,23.38
2023-01-12T17:59:39.209Z,27.75
2023-01-12T18:02:07.622Z,32.25
2023-01-12T18:04:37.679Z,30.23
2023-01-12T18:07:11.702Z,31.58
2023-01-12T18:09:39.856Z,26.98
2023-01-12T18:12:13.152Z,34.40
2023-01-12T18:15:10.774Z,33.20
2023-01-12T18:17:41.146Z,34.25
2023-01-12T18:20:12.589Z,41.35
2023-01-12T18:22:46.004Z,32.88
2023-01-12T18:25:25.877Z,37.58
2023-01-12T18:28:07.531Z,32.75
2023-01-12T18:31:02.961Z,34.70
2023-01-12T18:33:56.325Z,39.60
2023-01-12T18:39:45.416Z,30.15
2023-01-12T18:42:35.646Z,34.92
2023-01-12T18:45:09.081Z,41.05
2023-01-12T18:48:03.257Z,43.88
2023-01-12T18:51:05.559Z,42.75
2023-01-12T18:56:22.283Z,28.45
2023-01-12T18:59:11.977Z,38.13
2023-01-12T19:01:50.446Z,31.10
2023-01-12T19:04:34.491Z,29.48
2023-01-12T19:07:13.322Z,34.85
2023-01-12T19:09:44.173Z,34.38
2023-01-12T19:12:29.482Z,36.40
2023-01-12T19:15:32.797Z,35.28
2023-01-12T19:18:05.655Z,40.05
2023-01-12T19:20:41.178Z,35.42
2023-01-12T19:26:57.946Z,43.35
2023-01-12T19:30:42.038Z,47.08
2023-01-12T19:33:57.859Z,42.35
2023-01-12T19:36:50.101Z,41.15
2023-01-12T19:40:31.420Z,40.03
2023-01-12T19:43:24.584Z,41.55
2023-01-12T19:49:41.748Z,41.13
2023-01-12T19:52:13.558Z,37.78
2023-01-12T19:54:48.081Z,39.10
2023-01-12T19:57:24.164Z,40.35
2023-01-12T19:59:57.633Z,44.63
2023-01-12T20:02:33.075Z,41.55
2023-01-12T20:05:13.165Z,42.53
2023-01-12T20:07:56.722Z,39.03
2023-01-12T20:10:43.224Z,44.03
2023-01-12T20:13:17.947Z,48.15
2023-01-12T20:15:51.433Z,42.45
2023-01-12T20:18:40.480Z,37.47
2023-01-12T20:21:13.074Z,44.95
2023-01-12T20:23:57.058Z,41.15
2023-01-12T20:26:36.795Z,39.58
2023-01-12T20:29:13.122Z,29.10
2023-01-12T20:31:53.043Z,37.75
2023-01-12T20:34:22.982Z,31.90
2023-01-12T20:37:02.318Z,31.30
2023-01-12T20:39:40.345Z,40.95
2023-01-12T21:05:51.579Z,33.42
2023-01-12T21:09:40.380Z,33.33
2023-01-12T21:12:10.132Z,35.13
2023-01-12T21:14:48.463Z,33.45
2023-01-12T21:18:07.611Z,28.92
2023-01-12T21:20:47.070Z,31.85
2023-01-12T21:23:24.876Z,35.30
2023-01-12T21:26:10.647Z,34.33
2023-01-12T21:29:24.399Z,34.50
2023-01-12T21:32:01.849Z,29.95
2023-01-12T21:34:34.592Z,37.50
2023-01-12T21:37:24.982Z,32.05
2023-01-12T21:43:18.816Z,33.08
2023-01-12T21:46:10.751Z,32.53
2023-01-12T21:48:53.655Z,34.47
2023-01-12T21:51:30.523Z,36.92
2023-01-12T21:54:08.516Z,30.98
2023-01-12T21:57:00.846Z,33.25
2023-01-12T21:59:38.434Z,37.90
2023-01-12T22:02:07.049Z,33.75
2023-01-12T22:04:41.035Z,31.45
2023-01-12T22:07:23.531Z,24.30
2023-01-12T22:10:21.159Z,39.20
2023-01-12T22:12:57.711Z,32.45
2023-01-12T22:15:33.266Z,35.17
2023-01-12T22:18:13.419Z,33.95
2023-01-12T22:20:54.151Z,31.88
2023-01-12T22:23:33.242Z,32.33
2023-01-12T22:26:29.791Z,29.98
2023-01-12T22:29:10.727Z,30.65
2023-01-12T22:32:37.279Z,32.22
2023-01-12T22:35:44.610Z,28.88
2023-01-12T22:38:43.239Z,29.55
2023-01-12T22:42:16.202Z,28.50
2023-01-12T22:46:17.793Z,37.20
2023-01-12T22:49:54.042Z,28.20
2023-01-12T22:52:57.909Z,24.60
2023-01-12T23:00:11.170Z,28.90
2023-01-12T23:03:59.731Z,30.30
2023-01-12T23:11:22.722Z,26.80
2023-01-12T23:14:31.795Z,36.58
2023-01-12T23:17:21.634Z,32.40
2023-01-12T23:20:18.693Z,26.17
2023-01-12T23:23:16.115Z,41.03
2023-01-12T23:26:20.038Z,29.92
2023-01-12T23:29:23.976Z,28.08
2023-01-12T23:31:57.776Z,26.25
2023-01-12T23:34:30.062Z,27.05
2023-01-12T23:37:04.264Z,23.85
2023-01-12T23:39:39.010Z,26.67
2023-01-12T23:42:19.716Z,28.90
2023-01-12T23:44:53.220Z,21.05
2023-01-12T23:47:43.706Z,26.80
2023-01-12T23:50:52.312Z,24.05
2023-01-12T23:53:41.101Z,34.33
2023-01-12T23:59:37.873Z,21.48
